Flight Track Log - Related Links

Times and Time Zones

All times are in EDT time to prevent confusion due to time zone crossing. See the DAL1245 flight status page for this flight to view local times or setup timezone preferences in your user account.

Time Position Orientation Groundspeed Altitude Reporting Facility
EDT Latitude Longitude Course Direction KTS MPH feet Rate Location/Type
Sat 08:12:06 46.9289 -114.1147 103° East 151 174 4,100  Level Salt Lake Center
Sat 08:13:07 46.9581 -114.1692 308° West 168 193 6,600 2,281 Climbing Salt Lake Center
Sat 08:14:07 46.9883 -114.2189 312° West 166 191 8,700 2,050 Climbing Salt Lake Center
Sat 08:15:00 46.7613 -112.9954 102° East  Level FlightAware Approximate
Sat 08:15:07 47.0183 -114.2697 311° West 165 190 10,700  Level Salt Lake Center
Sat 08:16:00 46.7354 -112.8146 102° East  Level FlightAware Approximate
Sat 08:16:07 47.0542 -114.3317 310° West 198 228 12,100  Level Salt Lake Center
Sat 08:17:00 46.7074 -112.6347 103° East  Level FlightAware Approximate
Sat 08:17:08 47.0467 -114.4303 264° West 288 331 13,600  Level Salt Lake Center
Sat 08:18:08 46.9639 -114.4350 182° South 341 392 15,700 1,850 Climbing Salt Lake Center
Sat 08:19:08 46.9464 -114.2869 100° East 402 463 17,300 1,800 Climbing Salt Lake Center
Sat 08:20:08 46.9642 -114.1167 81° East 423 487 19,300 1,736 Climbing Salt Lake Center
Sat 08:21:09 46.9497 -113.9614 98° East 456 525 20,800 1,736 Climbing Salt Lake Center
Sat 08:22:09 46.9400 -113.7778 94° East 456 525 22,800 1,800 Climbing Salt Lake Center
Sat 08:23:09 46.9311 -113.5892 94° East 468 539 24,400 1,636 Climbing Salt Lake Center
Sat 08:24:10 46.9203 -113.3947 95° East 480 552 26,100 1,587 Climbing Salt Lake Center
Sat 08:25:10 46.9092 -113.1569 94° East 494 568 27,600 1,400 Climbing Salt Lake Center
Sat 08:26:10 46.8961 -112.9542 95° East 504 580 28,900 1,190 Climbing Salt Lake Center
Sat 08:27:11 46.8878 -112.7683 94° East 512 589 30,000 1,240 Climbing Salt Lake Center
Sat 08:28:11 46.8753 -112.5617 95° East 513 590 31,400 1,100 Climbing Salt Lake Center
Sat 08:29:11 46.8631 -112.3542 95° East 515 593 32,200 1,041 Climbing Salt Lake Center
Sat 08:30:12 46.8500 -112.1439 95° East 520 598 33,500 1,289 Climbing Salt Lake Center
Sat 08:31:12 46.8378 -111.9358 95° East 520 598 34,800 1,100 Climbing Salt Lake Center
Sat 08:32:12 46.8236 -111.7286 96° East 517 595 35,700 843 Climbing Salt Lake Center
Sat 08:33:13 46.8103 -111.5200 95° East 520 598 36,500 645 Climbing Salt Lake Center
Sat 08:34:13 46.7961 -111.3128 96° East 519 597 37,000 198 Climbing Salt Lake Center
Sat 08:35:14 46.7786 -111.0678 96° East 512 589 36,900  Descending Salt Lake Center
Sat 08:36:14 46.7647 -110.8564 95° East 524 603 37,000 50 Climbing Salt Lake Center
Sat 08:37:14 46.7494 -110.6500 96° East 519 597 37,000  Level Salt Lake Center
Sat 08:38:15 46.7319 -110.4456 97° East 512 589 37,000  Level Salt Lake Center
Sat 08:39:15 46.7167 -110.2361 96° East 519 597 37,000  Level Salt Lake Center
Sat 08:40:16 46.7003 -110.0294 97° East 524 603 37,000  Level Salt Lake Center
Sat 08:41:16 46.6839 -109.8206 96° East 521 600 37,000 50 Level Salt Lake Center
Sat 08:42:16 46.6667 -109.6117 97° East 522 601 37,100  Climbing Salt Lake Center
Sat 08:43:17 46.6497 -109.4011 97° East 522 601 37,000 -50 Descending Salt Lake Center
Sat 08:44:17 46.6314 -109.1903 97° East 524 603 37,000  Level Salt Lake Center
Sat 08:45:18 46.6131 -108.9819 97° East 521 600 37,000  Level Salt Lake Center
Sat 08:46:18 46.5944 -108.7739 97° East 520 598 37,000  Level Salt Lake Center
Sat 08:47:19 46.5750 -108.5658 98° East 520 598 37,000  Level Salt Lake Center
Sat 08:48:19 46.5547 -108.3583 98° East 520 598 37,000  Level Salt Lake Center
Sat 08:49:20 46.5342 -108.1517 98° East 518 596 37,000  Level Salt Lake Center
Sat 08:50:20 46.5144 -107.9450 98° East 517 595 37,000  Level Salt Lake Center
Sat 08:51:20 46.4936 -107.7397 98° East 516 594 37,000  Level Salt Lake Center
Sat 08:52:21 46.4728 -107.5336 98° East 516 594 37,000  Level Salt Lake Center
Sat 08:53:21 46.4514 -107.3281 99° East 516 594 37,000  Level Salt Lake Center
Sat 08:54:22 46.4294 -107.1189 99° East 521 600 37,000  Level Salt Lake Center
Sat 08:55:22 46.4069 -106.9114 99° East 522 601 37,000  Level Salt Lake Center
Sat 08:56:23 46.3842 -106.7036 99° East 522 601 37,000  Level Salt Lake Center
Sat 08:57:24 46.3611 -106.4964 99° East 522 601 37,000  Level Salt Lake Center
Sat 08:58:24 46.3361 -106.2872 100° East 525 604 37,000  Level Salt Lake Center
Sat 08:59:25 46.3069 -106.0381 100° East 525 604 37,000  Level Salt Lake Center
Sat 09:00:25 46.2819 -105.8317 100° East 524 603 37,000  Level Salt Lake Center
Sat 09:01:26 46.2569 -105.6253 100° East 523 602 37,000  Level Salt Lake Center
Sat 09:02:26 46.2325 -105.4192 100° East 521 600 37,000 50 Level Salt Lake Center
Sat 09:03:27 46.2061 -105.2133 100° East 522 601 37,100  Climbing Salt Lake Center
Sat 09:04:28 46.1822 -105.0119 100° East 516 594 37,000 -50 Descending Salt Lake Center
Sat 09:05:28 46.1561 -104.8075 100° East 516 594 37,000  Level Salt Lake Center
Sat 09:06:29 46.1300 -104.6053 100° East 516 594 37,000 -50 Level Salt Lake Center
Sat 09:07:29 46.1081 -104.4336 100° East 516 594 36,900 -50 Descending Salt Lake Center
Sat 09:08:30 46.0772 -104.1942 100° East 512 589 36,900 49 Level Salt Lake Center
Sat 09:09:31 46.0492 -103.9925 101° East 514 592 37,000 50 Climbing Salt Lake Center
Sat 09:10:31 46.0217 -103.7917 101° East 515 593 37,000  Level Salt Lake Center
Sat 09:11:32 45.9936 -103.5892 101° East 516 594 37,000  Level Salt Lake Center
Sat 09:12:33 45.9653 -103.3889 101° East 516 594 37,000  Level Salt Lake Center
Sat 09:13:33 45.9375 -103.1853 101° East 518 596 37,000  Level Salt Lake Center
Sat 09:14:19 45.9158 -103.0283 101° East 518 596 37,000 -56 Level Minneapolis Center
Sat 09:15:20 45.8867 -102.8278 102° East 516 594 36,900  Descending Minneapolis Center
Sat 09:16:21 45.8578 -102.6386 102° East 516 594 37,000 98 Climbing Minneapolis Center
Sat 09:17:23 45.8275 -102.4383 102° East 514 592 37,100  Climbing Minneapolis Center
Sat 09:18:24 45.7922 -102.2019 102° East 509 586 37,000 -49 Descending Minneapolis Center
Sat 09:19:25 45.7619 -102.0094 103° East 501 577 37,000  Level Minneapolis Center
Sat 09:20:26 45.7317 -101.8153 103° East 499 574 37,000  Level Minneapolis Center
Sat 09:21:27 45.7078 -101.6617 103° East 497 572 37,000  Level Minneapolis Center
Sat 09:22:29 45.6714 -101.4297 103° East 497 572 37,000  Level Minneapolis Center
Sat 09:23:30 45.6397 -101.2383 103° East 496 571 37,000  Level Minneapolis Center
Sat 09:24:32 45.6114 -101.0431 102° East 499 574 37,000  Level Minneapolis Center
Sat 09:25:33 45.5803 -100.8528 103° East 494 568 37,000  Level Minneapolis Center
Sat 09:26:34 45.5464 -100.6589 104° East 499 574 37,000  Level Minneapolis Center
Sat 09:27:36 45.5147 -100.4656 103° East 499 574 37,000  Level Minneapolis Center
Sat 09:28:37 45.4814 -100.2722 104° East 500 575 37,000  Level Minneapolis Center
Sat 09:29:38 45.4486 -100.0794 104° East 498 573 37,000  Level Minneapolis Center
Sat 09:30:40 45.4144 -99.8856 104° East 498 573 37,000  Level Minneapolis Center
Sat 09:31:41 45.3814 -99.6931 104° East 498 573 37,000  Level Minneapolis Center
Sat 09:32:42 45.3400 -99.4653 104° East 494 568 37,000  Level Minneapolis Center
Sat 09:33:56 45.3056 -99.2783 105° East 491 565 37,000  Level Minneapolis Center
Sat 09:34:57 45.2647 -99.0564 105° East 486 559 37,000  Level Minneapolis Center
Sat 09:35:59 45.2308 -98.8714 105° East 484 557 37,000  Level Minneapolis Center
Sat 09:37:00 45.1972 -98.6861 104° East 485 558 37,000  Level Minneapolis Center
Sat 09:38:02 45.1622 -98.4997 105° East 486 559 37,000  Level Minneapolis Center
Sat 09:39:03 45.1269 -98.3136 105° East 489 563 37,000 -197 Level Minneapolis Center
Sat 09:40:04 45.0914 -98.1278 105° East 489 563 36,600 -683 Descending Minneapolis Center
Sat 09:41:06 45.0539 -97.9397 106° East 484 557 35,600 -780 Descending Minneapolis Center
Sat 09:42:07 45.0200 -97.7592 105° East 478 550 35,000 -295 Descending Minneapolis Center
Sat 09:43:08 44.9833 -97.5794 106° East 477 549 35,000  Level Minneapolis Center
Sat 09:44:10 44.9403 -97.3625 106° East 478 550 35,000  Level Minneapolis Center
Sat 09:45:11 44.9033 -97.1828 106° East 477 549 35,000  Level Minneapolis Center
Sat 09:46:12 44.8750 -97.0397 106° East 476 548 35,000  Level Minneapolis Center
Sat 09:47:14 44.8314 -96.8250 106° East 474 545 35,000  Level Minneapolis Center
Sat 09:48:15 44.8156 -96.6394 97° East 475 547 35,000  Level Minneapolis Center
Sat 09:49:17 44.8089 -96.4539 93° East 474 545 35,000  Level Minneapolis Center
Sat 09:50:18 44.8014 -96.2672 93° East 476 548 35,000  Level Minneapolis Center
Sat 09:51:19 44.7944 -96.0806 93° East 475 547 35,000  Level Minneapolis Center
Sat 09:52:20 44.7869 -95.9322 94° East 474 545 35,000 -780 Level Minneapolis Center
Sat 09:53:22 44.7775 -95.7103 93° East 473 544 33,400 -2,162 Descending Minneapolis Center
Sat 09:54:36 44.7692 -95.5231 94° East 477 549 30,100 -3,289 Descending Minneapolis Center
Sat 09:55:37 44.7561 -95.2614 94° East 478 550 26,000 -3,220 Descending Minneapolis Center
Sat 09:56:39 44.7461 -95.0842 94° East 460 529 23,500 -2,439 Descending Minneapolis Center
Sat 09:57:40 44.7381 -94.9144 94° East 443 510 21,000 -2,439 Descending Minneapolis Center
Sat 09:58:42 44.7297 -94.7514 94° East 427 491 18,500 -2,293 Descending Minneapolis Center
Sat 09:59:43 44.7217 -94.6067 94° East 417 480 16,300 -2,508 Descending Minneapolis Center
Sat 10:00:44 44.7097 -94.4175 95° East 405 466 13,400 -2,244 Descending Minneapolis Center
Sat 10:01:46 44.7006 -94.2681 95° East 387 445 11,700 -1,156 Descending Minneapolis Center
Sat 10:02:59 44.6981 -94.1253 91° East 369 425 10,800 -978 Descending Minneapolis Center
Sat 10:04:01 44.7269 -94.0081 71° East 313 360 9,500 -1,694 Descending Minneapolis Center
Sat 10:05:03 44.7742 -93.8900 61° Northeast 289 333 7,300 -1,220 Descending Minneapolis Center
Sat 10:06:04 44.8242 -93.8047 50° Northeast 281 323 7,000 -146 Descending Minneapolis Center
Sat 10:07:06 44.8711 -93.7217 51° Northeast 271 312 7,000 -146 Level Minneapolis Center
Sat 10:08:07 44.9111 -93.6492 52° Northeast 236 272 6,700 -927 Descending Minneapolis Center
Sat 10:09:09 44.9517 -93.5772 51° Northeast 235 270 5,100 -1,366 Descending Minneapolis Center
Sat 10:10:10 44.9539 -93.4739 88° East 222 255 3,900 -878 Descending Minneapolis Center
Sat 10:11:12 44.9475 -93.3958 97° East 199 229 3,300 -726 Descending Minneapolis Center
Sat 10:12:14 44.9314 -93.3350 110° East 160 184 2,400 -780 Descending Minneapolis Center
Sat 10:13:15 44.9119 -93.2897 121° Southeast 137 158 1,700 -689 Descending Minneapolis Center

Login

Don't have an account? Register now (free) for customized features, flight alerts, and more!